Share

Sand Point, AK

Sand Point (PASD) Elev 23 ft | 55.31 °N, 160.52 °W | Change Station

Current weather conditions updated 8 minutes ago

Mostly Cloudy
Mostly Cloudy
43 °F
Feels Like 37 °F
N
10
Wind Variable Wind from NNW
Sunrise 7:25 AM
Sunset 9:57 PM
Moon Waning Gibbous

Tomorrow is forecast to be Cooler than today. Showers possible in the afternoon.

Pressure 29.85 in
Visibility 10.0 miles
Clouds Scattered Clouds 2700 ft
Mostly Cloudy 3600 ft
Windchill 37 °F
Dew Point 36 °F
Humidity 76%
Rainfall 0.00 in
Snow Depth Not available.
UV 3 out of 16
Pollen Not available.
Air Quality Not available.
Flu Activity Sporadic
METAR PASD 210036Z 33009KT 10SM SCT027 BKN036 06/02 A2985 RMK AO1 WEA: NONE (DA) PNO

More Conditions Fewer Conditions

Pressure 29.85 in
Visibility 10.0 miles
Clouds Scattered Clouds 2700 ft
Mostly Cloudy 3600 ft
Windchill 37 °F
Dew Point 36 °F
Humidity 76%
Rainfall 0.00 in
Snow Depth Not available.
UV 3 out of 16
Pollen Not available.
Air Quality Not available.
Flu Activity Sporadic
METAR PASD 210036Z 33009KT 10SM SCT027 BKN036 06/02 A2985 RMK AO1 WEA: NONE (DA) PNO

More Conditions Fewer Conditions

10-Day Weather Forecast

Almanac

Astronomy

Apr. 20, 2014 Rise Set
Actual Time 7:25 AM AKDT 9:57 PM AKDT
Civil Twilight 6:44 AM AKDT 10:38 PM AKDT
Nautical Twilight 5:52 AM AKDT 11:31 PM AKDT
Astronomical Twilight 4:47 AM AKDT 12:37 AM AKDT
Moon 3:08 AM AKDT (4/20) 11:38 AM AKDT (4/20)
Length of Visible Light 15h 53m
Length of Day
14h 32m
Tomorrow will be 4m 22s longer.
Waning Gibbous, 65% of the Moon is Illuminated
Today
Waning Gibbous
Apr 22
Last Quarter
Apr 29
New
May 6
First Quarter
May 14
Full

Today's Extremes

State Highs State Lows

Community

  • Easter Dance
    Easter Dance
  • spring skiing mount Baker WA
    spring skiing mount Baker WA
  • Morning Sun
    Morning Sun
  • Happy Easter
    Happy Easter
  • after rain
    after rain

WunderPhotos

Upload Photos

1,703,464 photos uploaded!

WunderBlogs® & News

Nearby

Snow Depth

Station Depth Elevation
Port Graham 6 in 300 ft
Mcneil Canyon 8 in 1320 ft
Nuka Glacier 32 in 1250 ft
MF Bradley River 21 in 2300 ft
Cooper Lake 20 in 1200 ft

Coastal Water Temperatures

Place Temperature
No Stations Reporting

Earthquake Activity

City Distance Mag. Time & Date
No recent earthquake activity has been reported nearby.
Minimum magnitude displayed is 2.5.

Nearby Weather Stations

Station Location Temp. Windchill Dew Point Humidity Wind Precip. Elev Updated Type
CRN SHUMAGIN MAG OBS SAND POINT 1ENE AK , Sand Point, AK 42 °F 42 °F - - North  at  - 0.00 in / hr 240 ft 4:15 PM AKDT MADIS

Show More Stations Show Fewer Stations

What do you think?

We're not finished. Please let us know what you like, what you don't like, and what you are still missing.